Time;durP1;ratioP1;P1;durP2;ratioP2;P2;SDS_P1;SDS_P2;PMS_P1;PMS_P2;Temp;Humidity;BMP_temperature;BMP_pressure;BME280_temperature;BME280_humidity;BME280_pressure;Samples;Min_cycle;Max_cycle;Signal;HPM_P1;HPM_P2
2023/05/07 00:00:09;;;;;;;12.85;6.10;;;;;15.20;101050.00;;;;9809789;29;20247;-76
2023/05/07 00:05:11;;;;;;;7.93;5.53;;;;;15.30;101046.00;;;;9805856;29;20247;-76
2023/05/07 00:10:13;;;;;;;9.60;5.87;;;;;15.30;101050.00;;;;9794343;29;20502;-75
2023/05/07 00:15:15;;;;;;;9.97;6.07;;;;;15.30;101039.00;;;;9808032;29;20603;-75
2023/05/07 00:20:16;;;;;;;8.43;5.53;;;;;15.30;101045.00;;;;9810177;29;20227;-76
2023/05/07 00:25:19;;;;;;;9.80;6.00;;;;;15.30;101037.00;;;;9809390;29;21718;-75
2023/05/07 00:30:21;;;;;;;8.77;5.87;;;;;15.30;101036.00;;;;9810550;29;20263;-75
2023/05/07 00:35:22;;;;;;;8.83;5.77;;;;;15.30;101023.00;;;;9809257;29;20223;-75
2023/05/07 00:40:24;;;;;;;9.47;6.50;;;;;15.30;101013.00;;;;9778949;29;20246;-75
2023/05/07 00:45:29;;;;;;;11.57;6.13;;;;;15.20;101011.00;;;;9777637;29;20239;-80
2023/05/07 00:50:32;;;;;;;15.23;5.97;;;;;15.20;101015.00;;;;9792709;29;20247;-80
2023/05/07 00:55:35;;;;;;;10.77;6.67;;;;;15.10;101004.00;;;;9820438;29;20324;-80
2023/05/07 01:00:37;;;;;;;11.73;7.20;;;;;15.10;101010.00;;;;9819950;29;20230;-75
2023/05/07 01:05:38;;;;;;;10.67;7.37;;;;;15.00;101013.00;;;;9784878;29;20339;-76
2023/05/07 01:10:42;;;;;;;10.43;6.90;;;;;15.00;101001.00;;;;9805443;29;20246;-79
2023/05/07 01:15:44;;;;;;;9.57;7.20;;;;;14.90;100992.00;;;;9798739;29;20249;-76
2023/05/07 01:20:45;;;;;;;8.77;6.53;;;;;14.90;100993.00;;;;9803461;29;20242;-76
2023/05/07 01:25:54;;;;;;;11.63;7.43;;;;;14.90;100989.00;;;;9800107;29;20243;-76
2023/05/07 01:31:03;;;;;;;10.07;7.40;;;;;14.80;100992.00;;;;9771785;29;21799;-75
2023/05/07 01:36:07;;;;;;;11.43;7.43;;;;;14.80;100994.00;;;;9788692;29;20224;-78
2023/05/07 01:41:08;;;;;;;10.20;7.67;;;;;14.70;100995.00;;;;9803200;29;20292;-79
2023/05/07 01:46:11;;;;;;;14.37;7.50;;;;;14.70;100998.00;;;;9814849;29;20277;-76
2023/05/07 01:51:13;;;;;;;10.90;7.73;;;;;14.70;100990.00;;;;9797214;29;20303;-81
2023/05/07 01:56:14;;;;;;;13.20;8.53;;;;;14.60;100994.00;;;;9797247;29;20233;-76
2023/05/07 02:01:18;;;;;;;15.57;8.10;;;;;14.60;101000.00;;;;9785132;29;20589;-77
2023/05/07 02:06:19;;;;;;;11.73;7.50;;;;;14.60;101002.00;;;;9799810;29;20923;-76
2023/05/07 02:11:21;;;;;;;10.37;8.43;;;;;14.60;101002.00;;;;9785264;29;20287;-75
2023/05/07 02:16:23;;;;;;;13.00;9.23;;;;;14.60;101005.00;;;;9787958;29;20239;-77
2023/05/07 02:21:26;;;;;;;15.40;8.50;;;;;14.60;101003.00;;;;9797299;29;20585;-77
2023/05/07 02:26:28;;;;;;;13.47;8.67;;;;;14.60;100999.00;;;;9802439;29;20239;-76
2023/05/07 02:31:30;;;;;;;11.63;8.83;;;;;14.50;101002.00;;;;9801415;29;20273;-77
2023/05/07 02:36:32;;;;;;;12.23;8.30;;;;;14.50;101003.00;;;;9784774;29;21970;-76
2023/05/07 02:41:41;;;;;;;13.70;9.90;;;;;14.40;101002.00;;;;9803928;29;20254;-76
2023/05/07 02:46:42;;;;;;;13.33;8.83;;;;;14.30;100990.00;;;;9783785;29;20308;-76
2023/05/07 02:51:46;;;;;;;10.93;8.20;;;;;14.20;100989.00;;;;9754552;29;21028;-76
2023/05/07 02:56:54;;;;;;;11.23;8.60;;;;;14.00;101007.00;;;;9799530;29;20236;-76
2023/05/07 03:01:55;;;;;;;9.30;8.30;;;;;14.00;101012.00;;;;9799187;29;20638;-77
2023/05/07 03:06:57;;;;;;;16.57;9.83;;;;;14.00;101008.00;;;;9785870;29;20641;-75
2023/05/07 03:11:58;;;;;;;12.83;9.30;;;;;14.00;101004.00;;;;9777284;29;21337;-80
2023/05/07 03:17:00;;;;;;;16.17;9.80;;;;;14.10;101004.00;;;;9814622;29;20219;-79
2023/05/07 03:22:01;;;;;;;12.97;9.50;;;;;14.10;101001.00;;;;9807324;29;20231;-74
2023/05/07 03:27:03;;;;;;;14.27;9.77;;;;;14.10;100993.00;;;;9798175;29;20771;-77
2023/05/07 03:32:05;;;;;;;10.40;9.27;;;;;14.10;101008.00;;;;9805081;29;20927;-76
2023/05/07 03:37:07;;;;;;;14.33;8.80;;;;;14.10;101000.00;;;;9798533;29;20238;-77
2023/05/07 03:42:09;;;;;;;16.33;8.80;;;;;14.10;101004.00;;;;9808919;29;20943;-75
2023/05/07 03:47:10;;;;;;;13.63;9.40;;;;;14.10;101000.00;;;;9810781;29;20235;-79
2023/05/07 03:52:13;;;;;;;13.67;9.33;;;;;14.10;101005.00;;;;9822806;29;20235;-80
2023/05/07 03:57:15;;;;;;;12.73;9.93;;;;;14.20;100998.00;;;;9786348;29;21610;-75
2023/05/07 04:02:16;;;;;;;14.43;10.97;;;;;14.20;101007.00;;;;9805112;29;20279;-76
2023/05/07 04:07:18;;;;;;;11.33;9.43;;;;;14.20;101009.00;;;;9773042;29;20239;-76
2023/05/07 04:12:24;;;;;;;12.37;10.37;;;;;14.20;101001.00;;;;9806787;29;20367;-75
2023/05/07 04:17:26;;;;;;;12.13;10.17;;;;;14.10;100996.00;;;;9805475;29;20223;-75
2023/05/07 04:22:27;;;;;;;12.37;10.50;;;;;14.10;100992.00;;;;9793380;29;20284;-78
2023/05/07 04:27:29;;;;;;;12.00;10.20;;;;;14.10;100988.00;;;;9815468;29;21240;-75
2023/05/07 04:32:31;;;;;;;15.13;10.87;;;;;14.20;100983.00;;;;9779278;29;22565;-75
2023/05/07 04:37:33;;;;;;;17.40;12.37;;;;;14.30;100977.00;;;;9801441;29;20231;-76
2023/05/07 04:42:35;;;;;;;14.93;11.67;;;;;14.30;100980.00;;;;9793346;29;20235;-74
2023/05/07 04:47:38;;;;;;;14.07;10.73;;;;;14.40;100985.00;;;;9781037;29;20691;-75
2023/05/07 04:52:40;;;;;;;14.10;11.40;;;;;14.50;100980.00;;;;9806035;29;20960;-74
2023/05/07 04:57:41;;;;;;;15.60;11.67;;;;;14.60;100989.00;;;;9787000;29;20328;-75
2023/05/07 05:02:45;;;;;;;14.30;12.80;;;;;14.70;100999.00;;;;9808148;29;20305;-78
2023/05/07 05:07:51;;;;;;;18.87;13.70;;;;;14.80;100996.00;;;;9804111;29;20252;-79
2023/05/07 05:12:53;;;;;;;14.50;13.00;;;;;15.00;101002.00;;;;9785758;29;20351;-77
2023/05/07 05:17:56;;;;;;;14.90;11.77;;;;;15.20;101004.00;;;;9780299;29;20691;-76
2023/05/07 05:22:58;;;;;;;16.50;11.70;;;;;15.40;101002.00;;;;9791346;29;20265;-74
2023/05/07 05:28:01;;;;;;;17.00;10.83;;;;;15.60;101010.00;;;;9801747;29;21841;-75
2023/05/07 05:33:03;;;;;;;19.47;12.00;;;;;15.80;101009.00;;;;9786386;29;20224;-75
2023/05/07 05:38:05;;;;;;;15.02;10.77;;;;;15.90;101015.00;;;;9785067;29;20232;-76
2023/05/07 05:43:07;;;;;;;16.13;10.45;;;;;15.90;101019.00;;;;9789662;29;21708;-77
2023/05/07 05:48:11;;;;;;;16.43;11.40;;;;;15.90;101031.00;;;;9787789;29;20514;-76
2023/05/07 05:53:13;;;;;;;19.30;11.90;;;;;15.90;101025.00;;;;9786674;29;20629;-77
2023/05/07 05:58:15;;;;;;;16.38;11.57;;;;;15.90;101028.00;;;;9811616;29;20231;-77
2023/05/07 06:03:22;;;;;;;11.70;9.45;;;;;16.00;101023.00;;;;9800465;29;20400;-79
2023/05/07 06:08:24;;;;;;;12.85;9.70;;;;;16.10;101031.00;;;;9788677;29;20216;-76
2023/05/07 06:13:26;;;;;;;15.70;8.93;;;;;16.20;101034.00;;;;9791277;29;20235;-79
2023/05/07 06:18:28;;;;;;;11.85;9.68;;;;;16.10;101052.00;;;;9779449;29;20663;-77
2023/05/07 06:23:29;;;;;;;10.20;8.77;;;;;16.00;101066.00;;;;9789973;29;21601;-76
2023/05/07 06:28:35;;;;;;;11.50;8.57;;;;;16.00;101061.00;;;;9779770;29;20810;-78
2023/05/07 06:33:39;;;;;;;15.23;7.80;;;;;16.10;101067.00;;;;9790748;29;20224;-76
2023/05/07 06:38:41;;;;;;;11.13;6.60;;;;;16.30;101073.00;;;;9789930;29;20337;-77
2023/05/07 06:43:43;;;;;;;11.13;7.13;;;;;16.50;101077.00;;;;9786798;29;20247;-76
2023/05/07 06:49:03;;;;;;;12.13;8.45;;;;;16.70;101069.00;;;;9815834;29;20251;-79
2023/05/07 06:54:04;;;;;;;11.80;7.68;;;;;17.00;101074.00;;;;9791952;29;20424;-76
2023/05/07 06:59:07;;;;;;;13.90;7.25;;;;;17.40;101078.00;;;;9799683;29;20224;-76
2023/05/07 07:04:13;;;;;;;11.93;6.35;;;;;17.50;101074.00;;;;9783598;29;20626;-76
2023/05/07 07:09:17;;;;;;;10.25;4.78;;;;;17.60;101082.00;;;;9783365;29;20558;-76
2023/05/07 07:14:18;;;;;;;12.02;4.95;;;;;17.60;101079.00;;;;9768107;29;20223;-76
2023/05/07 07:19:24;;;;;;;9.93;4.70;;;;;17.60;101071.00;;;;9782239;29;20223;-76
2023/05/07 07:24:29;;;;;;;13.18;5.07;;;;;17.60;101077.00;;;;9785836;29;20239;-76
2023/05/07 07:29:34;;;;;;;10.43;4.55;;;;;17.50;101071.00;;;;9797651;29;20576;-76
2023/05/07 07:34:35;;;;;;;10.65;4.85;;;;;17.30;101081.00;;;;9809839;29;20611;-78
2023/05/07 07:39:37;;;;;;;11.45;4.35;;;;;17.10;101081.00;;;;9813709;29;20227;-79
2023/05/07 07:44:40;;;;;;;9.88;4.82;;;;;17.00;101076.00;;;;9786524;29;20277;-77
2023/05/07 07:49:44;;;;;;;12.10;4.85;;;;;16.70;101090.00;;;;9784308;29;20705;-75
2023/05/07 07:54:45;;;;;;;10.20;5.07;;;;;16.80;101102.00;;;;9781136;29;20342;-77
2023/05/07 07:59:47;;;;;;;12.40;5.28;;;;;17.20;101100.00;;;;9797381;29;20476;-75
2023/05/07 08:04:50;;;;;;;10.07;4.60;;;;;17.50;101107.00;;;;9792550;29;20236;-74
2023/05/07 08:09:52;;;;;;;9.70;4.55;;;;;17.40;101101.00;;;;9828614;29;22012;-77
2023/05/07 08:14:57;;;;;;;10.65;4.47;;;;;17.40;101116.00;;;;9798984;29;20234;-75
2023/05/07 08:19:59;;;;;;;8.65;4.05;;;;;17.50;101114.00;;;;9797336;29;20240;-77
2023/05/07 08:25:01;;;;;;;9.38;4.50;;;;;17.60;101120.00;;;;9809229;29;20235;-75
2023/05/07 08:30:03;;;;;;;11.30;4.47;;;;;17.70;101120.00;;;;9810755;29;20235;-76
2023/05/07 08:35:05;;;;;;;6.53;3.67;;;;;17.70;101129.00;;;;9809481;29;20220;-76
2023/05/07 08:40:07;;;;;;;10.30;3.40;;;;;17.50;101135.00;;;;9788477;29;20242;-74
2023/05/07 08:45:13;;;;;;;7.85;3.33;;;;;17.20;101149.00;;;;9810690;29;21770;-74
2023/05/07 08:50:20;;;;;;;6.90;3.80;;;;;17.00;101157.00;;;;9795091;29;20711;-75
2023/05/07 08:55:24;;;;;;;9.63;3.80;;;;;16.90;101157.00;;;;9794260;29;20314;-76
2023/05/07 09:00:25;;;;;;;8.25;4.88;;;;;16.90;101161.00;;;;9802364;29;20224;-75
2023/05/07 09:05:30;;;;;;;5.88;4.20;;;;;17.10;101161.00;;;;9783574;29;20664;-76
2023/05/07 09:10:33;;;;;;;6.93;3.67;;;;;17.00;101170.00;;;;9797826;29;20223;-76
2023/05/07 09:15:35;;;;;;;7.22;3.78;;;;;17.00;101173.00;;;;9796196;29;20247;-77
2023/05/07 09:20:38;;;;;;;8.13;3.90;;;;;17.30;101173.00;;;;9806207;29;20227;-74
2023/05/07 09:25:40;;;;;;;8.10;4.20;;;;;17.50;101170.00;;;;9790015;29;20250;-76
2023/05/07 09:30:50;;;;;;;7.82;4.28;;;;;17.50;101170.00;;;;9807503;29;20223;-76
2023/05/07 09:35:51;;;;;;;6.95;4.25;;;;;17.60;101171.00;;;;9800621;29;20630;-77
2023/05/07 09:41:07;;;;;;;7.65;4.25;;;;;17.80;101180.00;;;;9774061;29;21983;-75
2023/05/07 09:46:20;;;;;;;6.82;3.58;;;;;18.10;101174.00;;;;9797167;29;20766;-76
2023/05/07 09:51:50;;;;;;;9.68;4.13;;;;;18.30;101175.00;;;;9771285;29;20228;-76
2023/05/07 09:56:54;;;;;;;5.95;3.45;;;;;18.50;101180.00;;;;9774453;29;20337;-78
2023/05/07 10:02:00;;;;;;;8.15;3.90;;;;;18.50;101186.00;;;;9794135;29;21921;-77
2023/05/07 10:07:05;;;;;;;7.38;3.58;;;;;18.50;101194.00;;;;9785920;29;20272;-76
2023/05/07 10:12:09;;;;;;;7.28;3.88;;;;;18.40;101204.00;;;;9806791;29;20234;-80
2023/05/07 10:17:12;;;;;;;7.22;4.30;;;;;18.20;101204.00;;;;9802073;29;20223;-78
2023/05/07 10:22:16;;;;;;;6.15;3.63;;;;;18.10;101202.00;;;;9806393;29;20227;-77
2023/05/07 10:27:22;;;;;;;8.52;3.83;;;;;18.30;101207.00;;;;9812152;29;20247;-78
2023/05/07 10:32:42;;;;;;;7.65;3.85;;;;;18.50;101205.00;;;;9811769;29;20606;-77
2023/05/07 10:37:49;;;;;;;9.30;4.15;;;;;18.60;101207.00;;;;9804332;29;20959;-78
2023/05/07 10:43:02;;;;;;;8.50;3.33;;;;;18.60;101206.00;;;;9802966;29;20227;-76
2023/05/07 10:48:14;;;;;;;9.48;4.28;;;;;18.50;101212.00;;;;9784136;29;20326;-76
2023/05/07 10:53:27;;;;;;;7.55;3.83;;;;;18.70;101218.00;;;;9780159;29;20318;-76
2023/05/07 10:58:43;;;;;;;9.43;4.32;;;;;18.80;101217.00;;;;9816462;29;20310;-82
2023/05/07 11:04:31;;;;;;;8.00;3.78;;;;;19.00;101214.00;;;;9836757;29;20231;-79
2023/05/07 11:10:04;;;;;;;6.60;2.95;;;;;19.10;101206.00;;;;9772615;29;20598;-77
2023/05/07 11:15:17;;;;;;;4.60;2.30;;;;;19.30;101207.00;;;;9806925;29;20266;-76
2023/05/07 11:20:19;;;;;;;6.70;2.72;;;;;19.10;101213.00;;;;9785898;29;20223;-78
2023/05/07 11:25:26;;;;;;;6.05;2.42;;;;;19.10;101203.00;;;;9794469;29;20242;-75
2023/05/07 11:30:34;;;;;;;3.78;2.10;;;;;19.20;101207.00;;;;9787216;29;20332;-76
2023/05/07 11:35:37;;;;;;;5.07;2.65;;;;;19.30;101203.00;;;;9782020;29;20242;-77
2023/05/07 11:40:56;;;;;;;4.57;2.33;;;;;19.50;101200.00;;;;9804170;29;20228;-80
2023/05/07 11:46:11;;;;;;;7.75;3.10;;;;;19.70;101205.00;;;;10134494;24;20245;-77
2023/05/07 11:51:18;;;;;;;4.03;2.80;;;;;19.60;101209.00;;;;9893050;29;20218;-76
2023/05/07 11:56:20;;;;;;;6.13;2.50;;;;;19.80;101212.00;;;;9900844;29;20340;-76
2023/05/07 12:01:21;;;;;;;4.63;2.53;;;;;20.10;101211.00;;;;9897592;29;20312;-76
2023/05/07 12:06:23;;;;;;;5.13;2.53;;;;;20.30;101207.00;;;;9897944;29;20237;-75
2023/05/07 12:11:25;;;;;;;5.70;2.28;;;;;20.40;101199.00;;;;9896387;29;20221;-75
2023/05/07 12:16:27;;;;;;;3.33;2.67;;;;;20.80;101204.00;;;;9898842;29;21013;-78
2023/05/07 12:21:29;;;;;;;4.95;1.88;;;;;21.10;101207.00;;;;9901934;29;20222;-76
2023/05/07 12:26:30;;;;;;;6.28;2.00;;;;;21.20;101198.00;;;;9888055;29;20605;-77
2023/05/07 12:31:32;;;;;;;3.97;1.63;;;;;21.10;101195.00;;;;9905668;29;20218;-77
2023/05/07 12:36:38;;;;;;;5.00;2.03;;;;;21.40;101202.00;;;;9897811;29;20904;-77
2023/05/07 12:41:54;;;;;;;6.15;1.90;;;;;21.70;101206.00;;;;9893953;29;21875;-75
2023/05/07 12:46:56;;;;;;;6.03;2.10;;;;;21.90;101203.00;;;;9900933;29;20236;-80
2023/05/07 12:51:58;;;;;;;5.63;2.20;;;;;21.90;101207.00;;;;9896084;29;20434;-78
2023/05/07 12:57:05;;;;;;;4.63;1.77;;;;;21.10;101215.00;;;;9933777;29;20657;-77
2023/05/07 13:02:08;;;;;;;4.40;1.90;;;;;21.10;101219.00;;;;9927939;29;20808;-77
2023/05/07 13:07:11;;;;;;;4.25;2.78;;;;;20.90;101220.00;;;;9900218;29;21600;-78
2023/05/07 13:12:13;;;;;;;5.32;3.45;;;;;20.50;101230.00;;;;9939371;29;20224;-78
2023/05/07 13:17:14;;;;;;;5.03;2.70;;;;;20.50;101231.00;;;;9933363;29;20273;-75
2023/05/07 13:22:16;;;;;;;4.25;2.60;;;;;20.40;101236.00;;;;9935570;29;20492;-78
2023/05/07 13:27:18;;;;;;;3.30;2.25;;;;;20.40;101239.00;;;;9938681;29;20241;-79
2023/05/07 13:32:20;;;;;;;4.70;2.03;;;;;20.60;101236.00;;;;9905057;29;20244;-78
2023/05/07 13:37:21;;;;;;;4.25;2.63;;;;;20.90;101233.00;;;;9940935;29;20315;-79
2023/05/07 13:42:23;;;;;;;5.10;2.40;;;;;20.90;101232.00;;;;9933960;29;20312;-79
2023/05/07 13:47:24;;;;;;;6.32;3.22;;;;;20.60;101230.00;;;;9936155;29;20241;-78
2023/05/07 13:52:26;;;;;;;3.22;2.00;;;;;20.70;101235.00;;;;9944601;29;20289;-79
2023/05/07 13:57:27;;;;;;;3.75;2.33;;;;;20.60;101234.00;;;;9943242;29;20225;-76
2023/05/07 14:02:28;;;;;;;3.63;2.63;;;;;20.40;101242.00;;;;9930011;29;20236;-77
2023/05/07 14:07:30;;;;;;;3.97;2.50;;;;;20.40;101246.00;;;;9935296;29;20241;-78
2023/05/07 14:12:33;;;;;;;6.10;3.60;;;;;20.40;101246.00;;;;9919190;29;20394;-76
2023/05/07 14:17:34;;;;;;;3.88;3.22;;;;;20.40;101246.00;;;;9930664;29;20229;-76
2023/05/07 14:22:36;;;;;;;6.00;3.40;;;;;20.50;101251.00;;;;9947965;29;20287;-78
2023/05/07 14:27:37;;;;;;;4.90;3.42;;;;;20.50;101259.00;;;;9927859;29;20372;-78
2023/05/07 14:32:39;;;;;;;4.55;4.15;;;;;20.90;101257.00;;;;9932459;29;20217;-75
2023/05/07 14:37:40;;;;;;;6.57;3.08;;;;;20.90;101242.00;;;;9949289;29;20801;-78
2023/05/07 14:42:42;;;;;;;4.93;3.95;;;;;20.80;101244.00;;;;9947021;29;20225;-78
2023/05/07 14:47:43;;;;;;;5.13;3.90;;;;;20.80;101246.00;;;;9947060;29;20792;-78
2023/05/07 14:52:44;;;;;;;5.88;4.35;;;;;20.80;101242.00;;;;9949707;29;20734;-78
2023/05/07 14:57:46;;;;;;;5.85;4.57;;;;;20.60;101247.00;;;;9931571;29;20716;-78
2023/05/07 15:02:47;;;;;;;5.22;4.15;;;;;20.70;101256.00;;;;9924305;29;20702;-78
2023/05/07 15:07:48;;;;;;;5.97;5.40;;;;;20.60;101249.00;;;;9914765;29;20245;-77
2023/05/07 15:12:50;;;;;;;6.43;5.28;;;;;20.70;101254.00;;;;9948541;29;20260;-78
2023/05/07 15:17:51;;;;;;;7.07;6.38;;;;;20.60;101261.00;;;;9933410;29;21885;-78
2023/05/07 15:22:53;;;;;;;7.05;6.45;;;;;20.50;101265.00;;;;9949802;29;20222;-78
2023/05/07 15:27:55;;;;;;;6.00;5.50;;;;;20.50;101262.00;;;;9945111;29;20263;-78
2023/05/07 15:32:56;;;;;;;6.53;5.90;;;;;20.50;101253.00;;;;9946184;29;21933;-76
2023/05/07 15:37:58;;;;;;;7.85;6.45;;;;;20.40;101245.00;;;;9944488;29;20213;-77
2023/05/07 15:43:00;;;;;;;6.80;6.20;;;;;20.30;101253.00;;;;9947719;29;20263;-78
2023/05/07 15:48:02;;;;;;;6.55;5.95;;;;;20.20;101255.00;;;;9948410;29;20273;-77
2023/05/07 15:53:04;;;;;;;6.70;6.07;;;;;20.00;101263.00;;;;9931624;29;20993;-77
2023/05/07 15:58:05;;;;;;;6.90;6.20;;;;;19.80;101277.00;;;;9945738;29;20221;-77
2023/05/07 16:03:07;;;;;;;8.40;7.35;;;;;19.50;101273.00;;;;9946306;29;20612;-77
2023/05/07 16:08:09;;;;;;;8.52;7.63;;;;;19.30;101279.00;;;;9929905;29;20218;-78
2023/05/07 16:13:10;;;;;;;9.32;8.23;;;;;19.30;101285.00;;;;9932149;29;20324;-78
2023/05/07 16:18:14;;;;;;;10.57;8.70;;;;;19.10;101286.00;;;;9946292;29;20222;-78
2023/05/07 16:23:17;;;;;;;10.18;9.23;;;;;19.00;101298.00;;;;9946573;29;20217;-77
2023/05/07 16:28:18;;;;;;;10.18;9.18;;;;;19.00;101292.00;;;;9942270;29;20223;-77
2023/05/07 16:33:19;;;;;;;10.18;9.18;;;;;18.90;101291.00;;;;9935952;29;20248;-77
2023/05/07 16:38:21;;;;;;;9.23;8.32;;;;;18.90;101290.00;;;;9945598;29;20775;-78
2023/05/07 16:43:22;;;;;;;8.05;7.28;;;;;18.80;101299.00;;;;9947032;29;20823;-76
2023/05/07 16:48:24;;;;;;;8.48;7.68;;;;;18.80;101299.00;;;;9928554;29;20228;-77
2023/05/07 16:53:26;;;;;;;8.30;7.43;;;;;18.80;101299.00;;;;9947427;29;20313;-78
2023/05/07 16:58:27;;;;;;;8.18;7.38;;;;;18.80;101293.00;;;;9944405;29;20697;-78
2023/05/07 17:03:30;;;;;;;8.00;7.20;;;;;18.80;101286.00;;;;9943822;29;20225;-77
2023/05/07 17:08:32;;;;;;;7.93;6.65;;;;;18.80;101292.00;;;;9937967;29;20225;-77
2023/05/07 17:13:33;;;;;;;7.95;6.18;;;;;18.70;101293.00;;;;9933912;29;20703;-75
2023/05/07 17:18:35;;;;;;;10.25;6.97;;;;;18.70;101293.00;;;;9901954;29;20232;-75
2023/05/07 17:23:37;;;;;;;8.05;6.40;;;;;18.70;101301.00;;;;9936182;29;20343;-77
2023/05/07 17:28:38;;;;;;;7.20;6.47;;;;;18.90;101296.00;;;;9923128;29;20888;-78
2023/05/07 17:33:40;;;;;;;7.15;6.45;;;;;19.00;101306.00;;;;9924826;29;20325;-78
2023/05/07 17:38:41;;;;;;;8.75;5.15;;;;;18.90;101300.00;;;;9936166;29;20329;-77
2023/05/07 17:43:42;;;;;;;7.68;6.13;;;;;19.00;101308.00;;;;9945574;29;20241;-81
2023/05/07 17:48:44;;;;;;;6.90;6.13;;;;;18.90;101307.00;;;;9936519;29;20229;-81
2023/05/07 17:53:45;;;;;;;7.03;6.38;;;;;18.80;101308.00;;;;9928185;29;20212;-78
2023/05/07 17:58:47;;;;;;;7.25;6.55;;;;;18.70;101308.00;;;;9932298;29;20671;-76
2023/05/07 18:04:01;;;;;;;8.10;7.07;;;;;18.50;101318.00;;;;9919493;29;20279;-76
2023/05/07 18:09:02;;;;;;;7.85;7.15;;;;;18.30;101319.00;;;;9937303;29;20308;-78
2023/05/07 18:14:04;;;;;;;8.07;7.28;;;;;18.20;101325.00;;;;9933256;29;20225;-76
2023/05/07 18:19:06;;;;;;;8.27;7.57;;;;;18.00;101339.00;;;;9938226;29;20221;-79
2023/05/07 18:24:07;;;;;;;9.32;8.38;;;;;17.70;101357.00;;;;9935912;29;20225;-78
2023/05/07 18:29:09;;;;;;;8.48;7.68;;;;;17.50;101362.00;;;;9907517;29;20229;-79
2023/05/07 18:34:13;;;;;;;9.25;8.23;;;;;17.30;101368.00;;;;9937683;29;21755;-78
2023/05/07 18:39:14;;;;;;;7.35;6.65;;;;;17.20;101365.00;;;;9937440;29;20222;-78
2023/05/07 18:44:15;;;;;;;7.30;6.53;;;;;17.10;101365.00;;;;9904333;29;20280;-78
2023/05/07 18:49:17;;;;;;;6.85;6.15;;;;;17.00;101368.00;;;;9919976;29;21578;-78
2023/05/07 18:54:18;;;;;;;7.53;6.43;;;;;16.80;101379.00;;;;9937728;29;20332;-78
2023/05/07 18:59:19;;;;;;;11.00;6.45;;;;;16.70;101383.00;;;;9936696;29;20229;-78
2023/05/07 19:04:21;;;;;;;6.90;6.28;;;;;16.60;101384.00;;;;9935607;29;20664;-78
2023/05/07 19:09:22;;;;;;;8.20;7.25;;;;;16.40;101381.00;;;;9934818;29;20217;-78
2023/05/07 19:14:24;;;;;;;7.95;7.10;;;;;16.30;101386.00;;;;9917467;29;20282;-78
2023/05/07 19:19:26;;;;;;;8.38;7.43;;;;;16.20;101400.00;;;;9935475;29;20596;-78
2023/05/07 19:24:28;;;;;;;8.60;7.80;;;;;16.00;101404.00;;;;9919274;29;20277;-77
2023/05/07 19:29:30;;;;;;;8.55;7.72;;;;;16.00;101418.00;;;;9920050;29;21453;-78
2023/05/07 19:34:31;;;;;;;9.40;8.07;;;;;16.00;101422.00;;;;9936145;29;20577;-78
2023/05/07 19:39:32;;;;;;;9.20;8.35;;;;;16.10;101431.00;;;;9905412;29;20292;-79
2023/05/07 19:44:34;;;;;;;9.45;8.48;;;;;16.10;101433.00;;;;9939009;29;20253;-79
2023/05/07 19:49:35;;;;;;;11.05;8.88;;;;;16.10;101446.00;;;;9921927;29;20232;-78
2023/05/07 19:54:36;;;;;;;10.73;9.52;;;;;16.20;101446.00;;;;9916959;29;21360;-78
2023/05/07 19:59:39;;;;;;;11.00;9.90;;;;;16.10;101455.00;;;;9917044;29;20225;-79
2023/05/07 20:04:40;;;;;;;12.27;8.93;;;;;16.10;101458.00;;;;9903422;29;20241;-79
2023/05/07 20:09:41;;;;;;;10.18;7.60;;;;;15.90;101451.00;;;;9915181;29;22000;-79
2023/05/07 20:14:42;;;;;;;9.20;8.15;;;;;15.80;101454.00;;;;9902815;29;20248;-76
2023/05/07 20:19:43;;;;;;;11.02;8.88;;;;;15.70;101460.00;;;;9940906;29;20228;-79
2023/05/07 20:24:45;;;;;;;11.85;7.47;;;;;15.60;101455.00;;;;9925016;29;21008;-80
2023/05/07 20:29:47;;;;;;;9.07;7.28;;;;;15.60;101463.00;;;;9915189;29;20556;-76
2023/05/07 20:34:48;;;;;;;11.88;7.63;;;;;15.60;101460.00;;;;9925084;29;20229;-80
2023/05/07 20:39:49;;;;;;;12.50;8.82;;;;;15.60;101468.00;;;;9921717;29;20236;-78
2023/05/07 20:44:51;;;;;;;10.85;8.15;;;;;15.60;101473.00;;;;9937224;29;20845;-78
2023/05/07 20:49:53;;;;;;;13.80;9.88;;;;;15.50;101466.00;;;;9905872;29;20463;-78
2023/05/07 20:54:54;;;;;;;14.38;10.45;;;;;15.50;101463.00;;;;9932649;29;21595;-76
2023/05/07 20:59:56;;;;;;;12.85;10.15;;;;;15.50;101467.00;;;;9917718;29;20232;-77
2023/05/07 21:04:58;;;;;;;11.50;9.32;;;;;15.50;101467.00;;;;9920001;29;20527;-80
2023/05/07 21:09:59;;;;;;;13.18;9.73;;;;;15.50;101479.00;;;;9931877;29;20336;-76
2023/05/07 21:15:00;;;;;;;13.63;10.82;;;;;15.50;101475.00;;;;9918294;29;20320;-81
2023/05/07 21:20:02;;;;;;;15.30;12.18;;;;;15.50;101483.00;;;;9930116;29;20233;-80
2023/05/07 21:25:04;;;;;;;17.55;13.68;;;;;15.50;101476.00;;;;9930701;29;20241;-76
2023/05/07 21:30:06;;;;;;;17.92;13.18;;;;;15.50;101478.00;;;;9931905;29;20909;-78
2023/05/07 21:35:08;;;;;;;18.48;14.15;;;;;15.50;101486.00;;;;9915701;29;21084;-77
2023/05/07 21:40:10;;;;;;;18.10;15.13;;;;;15.50;101480.00;;;;9915678;29;21501;-76
2023/05/07 21:45:12;;;;;;;19.70;15.45;;;;;15.50;101480.00;;;;9914504;29;20267;-77
2023/05/07 21:50:13;;;;;;;19.15;14.30;;;;;15.50;101484.00;;;;9932758;29;20234;-77
2023/05/07 21:55:19;;;;;;;19.27;14.65;;;;;15.40;101478.00;;;;9913881;29;20233;-77
2023/05/07 22:00:22;;;;;;;19.70;14.27;;;;;15.40;101470.00;;;;9930798;29;21940;-77
2023/05/07 22:05:23;;;;;;;20.83;14.38;;;;;15.30;101475.00;;;;9929358;29;20329;-77
2023/05/07 22:10:24;;;;;;;21.83;18.55;;;;;15.30;101486.00;;;;9929646;29;20508;-78
2023/05/07 22:15:26;;;;;;;20.30;17.48;;;;;15.20;101479.00;;;;9936608;29;20249;-78
2023/05/07 22:20:27;;;;;;;22.10;18.38;;;;;15.10;101479.00;;;;9936687;29;20221;-77
2023/05/07 22:25:33;;;;;;;31.17;20.58;;;;;15.10;101480.00;;;;9933565;29;20324;-77
2023/05/07 22:30:34;;;;;;;31.40;21.83;;;;;15.00;101492.00;;;;9912869;29;20232;-77
2023/05/07 22:35:36;;;;;;;34.20;21.73;;;;;15.00;101493.00;;;;9899312;29;20239;-77
2023/05/07 22:40:37;;;;;;;26.23;21.17;;;;;14.90;101498.00;;;;9904082;29;20228;-76
2023/05/07 22:45:39;;;;;;;30.17;23.60;;;;;14.80;101486.00;;;;9924420;29;20252;-79
2023/05/07 22:50:40;;;;;;;33.43;24.47;;;;;14.70;101492.00;;;;9943711;29;20922;-80
2023/05/07 22:55:42;;;;;;;30.80;22.87;;;;;14.60;101484.00;;;;9925187;29;20217;-77
2023/05/07 23:00:43;;;;;;;37.80;23.70;;;;;14.50;101485.00;;;;9936661;29;20646;-77
2023/05/07 23:05:44;;;;;;;31.63;22.77;;;;;14.40;101484.00;;;;9921477;29;20328;-77
2023/05/07 23:10:46;;;;;;;31.60;23.47;;;;;14.30;101489.00;;;;9922355;29;20309;-77
2023/05/07 23:15:48;;;;;;;38.40;25.10;;;;;14.20;101483.00;;;;9945325;29;20569;-78
2023/05/07 23:20:49;;;;;;;44.60;28.23;;;;;14.20;101482.00;;;;9926923;29;20217;-76
2023/05/07 23:25:51;;;;;;;43.63;28.98;;;;;14.10;101492.00;;;;9919544;29;20245;-76
2023/05/07 23:30:53;;;;;;;49.37;30.50;;;;;14.10;101486.00;;;;9935335;29;20225;-76
2023/05/07 23:36:02;;;;;;;51.33;31.57;;;;;14.10;101481.00;;;;9938647;29;20244;-76
2023/05/07 23:41:03;;;;;;;44.53;30.50;;;;;14.10;101485.00;;;;9923450;29;20256;-76
2023/05/07 23:46:05;;;;;;;45.10;31.50;;;;;14.10;101477.00;;;;9919627;29;20248;-75
2023/05/07 23:51:06;;;;;;;48.33;31.57;;;;;14.20;101490.00;;;;9941209;29;21991;-76
2023/05/07 23:56:07;;;;;;;54.93;31.33;;;;;14.30;101487.00;;;;9942712;29;20685;-75
